createdAt,value
2023-03-12T06:57:16.854Z,-0.10
2023-03-12T06:59:44.506Z,0.00
2023-03-12T07:02:12.403Z,0.00
2023-03-12T07:04:39.883Z,0.10
2023-03-12T07:07:08.797Z,0.10
2023-03-12T07:09:36.436Z,0.20
2023-03-12T07:12:04.426Z,0.20
2023-03-12T07:14:31.849Z,0.40
2023-03-12T07:17:02.069Z,0.50
2023-03-12T07:19:30.506Z,0.50
2023-03-12T07:21:58.411Z,0.50
2023-03-12T07:24:25.935Z,0.40
2023-03-12T07:26:53.460Z,0.40
2023-03-12T07:29:20.930Z,0.50
2023-03-12T07:31:48.636Z,0.70
2023-03-12T07:34:16.313Z,0.90
2023-03-12T07:36:44.040Z,0.90
2023-03-12T07:39:11.572Z,1.10
2023-03-12T07:41:39.290Z,1.10
2023-03-12T07:44:07.086Z,1.10
2023-03-12T07:46:34.698Z,1.30
2023-03-12T07:49:02.296Z,1.30
2023-03-12T07:51:29.799Z,1.40
2023-03-12T07:53:58.316Z,1.20
2023-03-12T07:56:26.157Z,1.20
2023-03-12T07:58:54.146Z,1.30
2023-03-12T08:01:22.035Z,1.50
2023-03-12T08:03:50.070Z,1.50
2023-03-12T08:06:17.711Z,1.50
2023-03-12T08:08:45.501Z,1.60
2023-03-12T08:11:13.175Z,1.50
2023-03-12T08:13:40.633Z,1.50
2023-03-12T08:16:09.548Z,1.60
2023-03-12T08:18:37.710Z,1.60
2023-03-12T08:21:05.458Z,1.70
2023-03-12T08:23:32.898Z,1.80
2023-03-12T08:26:00.529Z,1.80
2023-03-12T08:28:28.367Z,1.80
2023-03-12T08:30:59.900Z,1.80
2023-03-12T08:33:27.551Z,2.00
2023-03-12T08:35:55.260Z,2.00
2023-03-12T08:38:23.176Z,1.90
2023-03-12T08:41:01.494Z,1.70
2023-03-12T08:43:29.852Z,1.80
2023-03-12T08:46:03.163Z,1.90
2023-03-12T08:48:32.535Z,1.90
2023-03-12T08:51:04.400Z,2.10
2023-03-12T08:53:33.293Z,2.10
2023-03-12T08:56:01.383Z,2.10
2023-03-12T08:58:29.394Z,2.20
2023-03-12T09:00:58.381Z,2.30
2023-03-12T09:03:28.318Z,2.40
2023-03-12T09:06:16.990Z,2.60
2023-03-12T09:08:45.907Z,2.60
2023-03-12T09:11:15.194Z,2.70
2023-03-12T09:14:08.193Z,2.90
2023-03-12T09:16:30.563Z,2.90
2023-03-12T09:18:58.052Z,2.60
2023-03-12T09:21:25.565Z,2.70
2023-03-12T09:23:53.121Z,3.10
2023-03-12T09:26:21.389Z,3.10
2023-03-12T09:28:49.030Z,2.90
2023-03-12T09:31:16.661Z,2.70
2023-03-12T09:33:44.300Z,2.90
2023-03-12T09:36:12.086Z,3.00
2023-03-12T09:38:39.752Z,2.90
2023-03-12T09:41:16.136Z,3.00
2023-03-12T09:43:51.045Z,3.20
2023-03-12T09:46:46.531Z,3.40
2023-03-12T09:49:36.313Z,3.30
2023-03-12T09:52:18.701Z,3.20
2023-03-12T09:55:02.891Z,3.10
2023-03-12T09:57:30.411Z,3.20
2023-03-12T09:59:58.414Z,3.50
2023-03-12T10:02:40.693Z,3.70
2023-03-12T10:05:32.164Z,3.50
2023-03-12T10:08:21.320Z,3.60
2023-03-12T10:11:11.997Z,3.60
2023-03-12T10:14:31.578Z,3.50
2023-03-12T10:17:41.878Z,3.50
2023-03-12T10:20:54.004Z,3.90
2023-03-12T10:24:04.710Z,3.80
2023-03-12T10:26:43.446Z,4.20
2023-03-12T10:29:37.478Z,4.50
2023-03-12T10:32:20.326Z,4.30
2023-03-12T10:34:53.532Z,4.10
2023-03-12T10:37:41.232Z,4.10
2023-03-12T10:40:21.061Z,4.10
2023-03-12T10:42:49.112Z,3.90
2023-03-12T10:45:23.426Z,3.90
2023-03-12T10:48:02.957Z,4.00
2023-03-12T10:50:38.050Z,4.20
2023-03-12T10:53:24.008Z,4.50
2023-03-12T10:56:13.235Z,4.60
2023-03-12T10:58:44.607Z,4.70
2023-03-12T11:01:28.548Z,4.90
2023-03-12T11:04:28.766Z,4.80
2023-03-12T11:07:15.440Z,4.60
2023-03-12T11:09:43.130Z,4.50
2023-03-12T11:12:31.412Z,4.50
2023-03-12T11:14:59.564Z,4.70
2023-03-12T11:17:29.992Z,4.50
2023-03-12T11:19:57.486Z,4.50
2023-03-12T11:22:33.906Z,4.50
2023-03-12T11:25:06.689Z,4.80
2023-03-12T11:27:42.341Z,4.80
2023-03-12T11:30:16.759Z,5.40
2023-03-12T11:32:51.487Z,5.90
2023-03-12T11:35:36.691Z,6.10
2023-03-12T11:38:25.981Z,6.20
2023-03-12T11:41:14.056Z,5.60
2023-03-12T11:44:08.974Z,5.40
2023-03-12T11:46:57.307Z,5.10
2023-03-12T11:49:57.054Z,5.30
2023-03-12T11:52:53.549Z,5.40
2023-03-12T11:55:48.916Z,5.70
2023-03-12T11:58:57.599Z,5.60
2023-03-12T12:01:55.550Z,5.40
2023-03-12T12:05:07.226Z,5.40
2023-03-12T12:08:12.767Z,5.90
2023-03-12T12:11:29.171Z,6.20
2023-03-12T12:14:58.243Z,6.50
2023-03-12T12:17:52.977Z,6.90
2023-03-12T12:20:55.262Z,6.50
2023-03-12T12:23:45.014Z,6.70
2023-03-12T12:26:37.170Z,6.40
2023-03-12T12:29:19.872Z,6.10
2023-03-12T12:31:59.276Z,6.10
2023-03-12T12:34:54.572Z,6.10
2023-03-12T12:37:32.968Z,6.00
2023-03-12T12:40:14.196Z,6.00
2023-03-12T12:43:01.490Z,6.30
2023-03-12T12:45:31.143Z,6.20
2023-03-12T12:48:16.878Z,6.10
2023-03-12T12:50:46.103Z,6.40
2023-03-12T12:53:57.404Z,6.50
2023-03-12T12:57:06.697Z,6.00
2023-03-12T13:00:13.681Z,5.80
2023-03-12T13:02:44.947Z,5.70
2023-03-12T13:05:40.504Z,6.20
2023-03-12T13:08:11.413Z,5.80
2023-03-12T13:10:48.944Z,6.50
2023-03-12T13:13:27.383Z,6.90
2023-03-12T13:16:43.304Z,6.30
2023-03-12T13:19:16.399Z,5.70
2023-03-12T13:22:09.472Z,5.90
2023-03-12T13:25:10.769Z,5.60
2023-03-12T13:27:41.391Z,5.90
2023-03-12T13:30:49.740Z,5.80
2023-03-12T13:33:21.888Z,5.50
2023-03-12T13:36:12.099Z,5.60
2023-03-12T13:38:59.178Z,5.70
2023-03-12T13:41:57.461Z,5.80
2023-03-12T13:44:27.748Z,6.00
2023-03-12T13:47:30.968Z,6.10
2023-03-12T13:50:01.151Z,6.30
2023-03-12T13:52:40.964Z,6.10
2023-03-12T13:55:14.313Z,6.30
2023-03-12T13:58:06.377Z,6.20
2023-03-12T14:01:27.633Z,6.20
2023-03-12T14:11:52.832Z,5.90
2023-03-12T14:14:41.602Z,5.80
2023-03-12T14:17:29.901Z,5.80
2023-03-12T14:20:09.829Z,5.90
2023-03-12T14:22:40.234Z,5.90
2023-03-12T14:25:26.151Z,5.90
2023-03-12T14:27:53.922Z,5.90
2023-03-12T14:30:49.648Z,5.90
2023-03-12T14:33:18.590Z,5.80
2023-03-12T14:36:15.950Z,5.70
2023-03-12T14:38:47.293Z,5.70
2023-03-12T14:41:34.585Z,5.40
2023-03-12T14:44:32.748Z,5.40
2023-03-12T14:47:11.701Z,5.50
2023-03-12T14:49:45.508Z,5.60
2023-03-12T14:52:25.242Z,5.60
2023-03-12T14:55:01.250Z,5.50
2023-03-12T14:57:29.199Z,5.50
2023-03-12T15:00:01.540Z,5.50
2023-03-12T15:02:31.979Z,5.40
2023-03-12T15:05:02.766Z,5.30
2023-03-12T15:07:39.667Z,5.20
2023-03-12T15:10:25.161Z,5.30
2023-03-12T15:12:57.424Z,5.30
2023-03-12T15:15:47.794Z,5.30
2023-03-12T15:18:34.097Z,5.30
2023-03-12T15:21:03.361Z,5.20
2023-03-12T15:23:34.094Z,5.30
2023-03-12T15:26:33.382Z,5.30
2023-03-12T15:29:29.103Z,5.20
2023-03-12T15:32:01.152Z,5.20
2023-03-12T15:34:38.590Z,5.30
2023-03-12T15:37:34.204Z,5.40
2023-03-12T15:40:16.292Z,5.50
2023-03-12T15:42:47.159Z,5.60
2023-03-12T15:45:48.391Z,5.50
2023-03-12T15:48:33.844Z,5.40
2023-03-12T15:51:01.951Z,5.40
2023-03-12T15:53:34.969Z,5.40
2023-03-12T15:56:07.883Z,5.40
2023-03-12T15:58:41.829Z,5.40
2023-03-12T16:01:13.606Z,5.40
2023-03-12T16:03:45.626Z,5.20
2023-03-12T16:06:20.631Z,5.20
2023-03-12T16:08:52.350Z,5.00
2023-03-12T16:11:24.750Z,4.90
2023-03-12T16:14:03.146Z,4.80
2023-03-12T16:16:31.009Z,4.70
2023-03-12T16:18:58.713Z,4.60
2023-03-12T16:21:26.311Z,4.50
2023-03-12T16:23:53.858Z,4.50
2023-03-12T16:26:22.622Z,4.50
2023-03-12T16:28:50.144Z,4.60
2023-03-12T16:31:17.729Z,4.50
2023-03-12T16:33:45.239Z,4.40
2023-03-12T16:36:16.296Z,4.40
2023-03-12T16:38:44.552Z,4.30
2023-03-12T16:41:18.024Z,4.20
2023-03-12T16:43:50.726Z,4.20
2023-03-12T16:46:21.841Z,4.20
2023-03-12T16:48:56.798Z,4.10
2023-03-12T16:51:24.958Z,4.00
2023-03-12T16:54:06.784Z,4.10
2023-03-12T16:56:37.493Z,4.10
2023-03-12T16:59:38.693Z,4.10
2023-03-12T17:02:17.654Z,4.10
2023-03-12T17:04:45.290Z,4.10
2023-03-12T17:07:12.850Z,4.10
2023-03-12T17:09:40.517Z,4.00
2023-03-12T17:12:29.006Z,4.00
2023-03-12T17:14:58.609Z,4.00
2023-03-12T17:17:26.206Z,4.00
2023-03-12T17:19:53.724Z,4.00
2023-03-12T17:22:21.585Z,4.00
2023-03-12T17:24:49.129Z,3.90
2023-03-12T17:27:16.715Z,3.90
2023-03-12T17:29:44.204Z,3.90
2023-03-12T17:32:11.879Z,3.80
2023-03-12T17:34:39.385Z,3.80
2023-03-12T17:37:08.732Z,3.80
2023-03-12T17:39:36.722Z,3.80
2023-03-12T17:42:04.535Z,3.80
2023-03-12T17:44:35.914Z,3.80
2023-03-12T17:47:03.473Z,3.70
2023-03-12T17:49:31.599Z,3.80
2023-03-12T17:51:59.082Z,3.80
2023-03-12T17:54:36.967Z,3.80
2023-03-12T17:57:04.620Z,3.80
2023-03-12T17:59:32.167Z,3.80
2023-03-12T18:01:59.661Z,3.80
2023-03-12T18:04:27.168Z,3.80
2023-03-12T18:06:54.867Z,3.80
2023-03-12T18:09:22.412Z,3.80
2023-03-12T18:11:50.005Z,3.70
2023-03-12T18:14:18.034Z,3.70
2023-03-12T18:16:45.569Z,3.70
2023-03-12T18:19:13.166Z,3.80
2023-03-12T18:21:40.651Z,3.80
2023-03-12T18:24:14.065Z,3.70
2023-03-12T18:26:42.644Z,3.70
2023-03-12T18:29:10.125Z,3.60
2023-03-12T18:31:38.092Z,3.70
2023-03-12T18:34:05.639Z,3.70
2023-03-12T18:36:33.227Z,3.80
2023-03-12T18:39:04.685Z,3.80
2023-03-12T18:41:33.126Z,3.80
2023-03-12T18:44:01.086Z,3.80
2023-03-12T18:46:29.074Z,3.80
2023-03-12T18:48:56.679Z,3.90
2023-03-12T18:51:24.213Z,3.90
2023-03-12T18:53:51.677Z,3.90
2023-03-12T18:56:19.201Z,3.90
2023-03-12T18:58:46.800Z,3.90
2023-03-12T19:01:14.278Z,3.90
2023-03-12T19:03:41.765Z,3.90
2023-03-12T19:06:13.000Z,3.80
2023-03-12T19:08:41.959Z,3.80
2023-03-12T19:11:15.945Z,3.80
2023-03-12T19:13:43.949Z,3.80
2023-03-12T19:16:15.043Z,3.80
2023-03-12T19:18:42.626Z,3.90
2023-03-12T19:21:10.528Z,3.90
2023-03-12T19:23:38.298Z,3.90
2023-03-12T19:26:07.774Z,3.90
2023-03-12T19:28:36.356Z,3.90
2023-03-12T19:31:08.356Z,3.90
2023-03-12T19:33:36.106Z,3.80
2023-03-12T19:36:04.403Z,3.80
2023-03-12T19:38:32.763Z,3.80
2023-03-12T19:41:00.512Z,3.80
2023-03-12T19:43:28.241Z,3.70
2023-03-12T19:45:56.118Z,3.70
2023-03-12T19:48:25.500Z,3.70
2023-03-12T19:50:54.994Z,3.60
2023-03-12T19:53:24.735Z,3.70
2023-03-12T19:55:52.478Z,3.70
2023-03-12T19:58:20.025Z,3.70
2023-03-12T20:00:49.618Z,3.60
2023-03-12T20:03:17.247Z,3.60
2023-03-12T20:05:45.588Z,3.60
2023-03-12T20:08:13.690Z,3.60
2023-03-12T20:10:41.251Z,3.60
2023-03-12T20:13:13.084Z,3.60
2023-03-12T20:15:40.616Z,3.60
2023-03-12T20:18:08.105Z,3.70
2023-03-12T20:20:35.586Z,3.70
2023-03-12T20:23:03.097Z,3.70
2023-03-12T20:25:30.656Z,3.60
2023-03-12T20:27:58.949Z,3.60
2023-03-12T20:30:26.661Z,3.40
2023-03-12T20:32:54.364Z,3.30
2023-03-12T20:35:21.925Z,3.30
2023-03-12T20:37:49.386Z,3.40
2023-03-12T20:40:17.043Z,3.40
2023-03-12T20:42:44.613Z,3.40
2023-03-12T20:45:12.495Z,3.40
2023-03-12T20:47:40.542Z,3.40
2023-03-12T20:50:09.426Z,3.40
2023-03-12T20:52:37.084Z,3.40
2023-03-12T20:55:05.340Z,3.30
2023-03-12T20:57:32.907Z,3.30
2023-03-12T21:00:00.975Z,3.20
2023-03-12T21:02:28.478Z,3.00
2023-03-12T21:04:55.993Z,3.10
2023-03-12T21:07:23.490Z,3.20
2023-03-12T21:09:51.018Z,3.10
2023-03-12T21:12:18.900Z,3.10
2023-03-12T21:14:46.358Z,3.10
2023-03-12T21:17:13.998Z,3.10
2023-03-12T21:19:42.883Z,3.00
2023-03-12T21:22:10.668Z,2.90
2023-03-12T21:24:38.333Z,2.80
2023-03-12T21:27:05.855Z,2.90
2023-03-12T21:29:33.350Z,2.90
2023-03-12T21:32:00.830Z,2.80
2023-03-12T21:34:30.754Z,2.80
2023-03-12T21:36:58.288Z,2.80
2023-03-12T21:39:27.367Z,2.80
2023-03-12T21:41:54.922Z,2.80
2023-03-12T21:44:22.432Z,2.80
2023-03-12T21:46:49.881Z,2.80
2023-03-12T21:49:18.254Z,2.80
2023-03-12T21:51:46.055Z,2.80
2023-03-12T21:54:14.001Z,2.80
2023-03-12T21:56:41.984Z,2.80
2023-03-12T21:59:10.754Z,2.80
2023-03-12T22:01:38.572Z,2.80
2023-03-12T22:04:06.335Z,2.80
2023-03-12T22:06:33.922Z,2.80
2023-03-12T22:09:01.405Z,2.90
2023-03-12T22:11:28.863Z,2.90
2023-03-12T22:13:56.441Z,3.00
2023-03-12T22:16:23.968Z,3.00
2023-03-12T22:18:51.490Z,3.00
2023-03-12T22:21:22.266Z,3.10
2023-03-12T22:23:53.227Z,3.20
2023-03-12T22:26:23.298Z,3.20
2023-03-12T22:28:53.552Z,3.20
2023-03-12T22:31:22.946Z,3.30
2023-03-12T22:33:50.685Z,3.30
2023-03-12T22:36:20.151Z,3.30
2023-03-12T22:38:47.954Z,3.30
2023-03-12T22:41:29.299Z,3.30
2023-03-12T22:44:03.034Z,3.40
2023-03-12T22:46:30.697Z,3.40
2023-03-12T22:49:01.496Z,3.40
2023-03-12T22:51:31.760Z,3.50
2023-03-12T22:53:59.344Z,3.50
2023-03-12T22:56:27.068Z,3.50
2023-03-12T22:58:56.295Z,3.60
2023-03-12T23:01:25.043Z,3.60
2023-03-12T23:03:53.179Z,3.60
2023-03-12T23:06:27.200Z,3.60
2023-03-12T23:08:57.689Z,3.60
2023-03-12T23:11:28.223Z,3.70
2023-03-12T23:13:56.218Z,3.70
2023-03-12T23:16:26.586Z,3.70
2023-03-12T23:18:55.366Z,3.70
2023-03-12T23:21:24.642Z,3.70
2023-03-12T23:23:52.805Z,3.80
2023-03-12T23:26:24.223Z,3.80
2023-03-12T23:28:53.614Z,3.80
2023-03-12T23:31:21.803Z,3.80
2023-03-12T23:33:49.281Z,3.80
2023-03-12T23:36:21.054Z,3.80
2023-03-12T23:38:50.636Z,3.80
2023-03-12T23:41:24.543Z,3.90
2023-03-12T23:43:53.408Z,3.80
2023-03-12T23:46:21.638Z,3.80
2023-03-12T23:48:50.153Z,3.80
2023-03-12T23:51:24.891Z,3.90
2023-03-12T23:53:56.886Z,3.90
2023-03-12T23:56:27.691Z,3.90
2023-03-12T23:58:55.391Z,3.90
